sensor_id;sensor_type;location;lat;lon;timestamp;P1;durP1;ratioP1;P2;durP2;ratioP2
74158;SDS011;62511;47.970;11.774;2023-06-26T00:01:25;9.02;;;4.53;;
74158;SDS011;62511;47.970;11.774;2023-06-26T00:03:54;6.85;;;4.18;;
74158;SDS011;62511;47.970;11.774;2023-06-26T00:06:20;6.88;;;4.25;;
74158;SDS011;62511;47.970;11.774;2023-06-26T00:08:49;7.13;;;4.22;;
74158;SDS011;62511;47.970;11.774;2023-06-26T00:11:15;8.27;;;4.80;;
74158;SDS011;62511;47.970;11.774;2023-06-26T00:13:41;8.23;;;4.88;;
74158;SDS011;62511;47.970;11.774;2023-06-26T00:16:07;8.00;;;4.88;;
74158;SDS011;62511;47.970;11.774;2023-06-26T00:18:33;7.32;;;4.47;;
74158;SDS011;62511;47.970;11.774;2023-06-26T00:20:59;7.32;;;4.90;;
74158;SDS011;62511;47.970;11.774;2023-06-26T00:23:25;8.57;;;4.72;;
74158;SDS011;62511;47.970;11.774;2023-06-26T00:25:53;7.57;;;4.57;;
74158;SDS011;62511;47.970;11.774;2023-06-26T00:28:19;6.75;;;4.28;;
74158;SDS011;62511;47.970;11.774;2023-06-26T00:30:45;9.27;;;4.53;;
74158;SDS011;62511;47.970;11.774;2023-06-26T00:33:11;9.07;;;5.32;;
74158;SDS011;62511;47.970;11.774;2023-06-26T00:35:37;9.43;;;4.32;;
74158;SDS011;62511;47.970;11.774;2023-06-26T00:38:03;7.53;;;4.80;;
74158;SDS011;62511;47.970;11.774;2023-06-26T00:40:29;7.15;;;4.38;;
74158;SDS011;62511;47.970;11.774;2023-06-26T00:42:55;8.50;;;4.22;;
74158;SDS011;62511;47.970;11.774;2023-06-26T00:45:21;7.13;;;4.40;;
74158;SDS011;62511;47.970;11.774;2023-06-26T00:47:47;7.80;;;4.28;;
74158;SDS011;62511;47.970;11.774;2023-06-26T00:50:13;8.57;;;4.70;;
74158;SDS011;62511;47.970;11.774;2023-06-26T00:52:41;7.82;;;4.60;;
74158;SDS011;62511;47.970;11.774;2023-06-26T00:55:07;8.48;;;4.53;;
74158;SDS011;62511;47.970;11.774;2023-06-26T00:57:33;6.63;;;3.50;;
74158;SDS011;62511;47.970;11.774;2023-06-26T00:59:59;7.28;;;4.32;;
74158;SDS011;62511;47.970;11.774;2023-06-26T01:04:53;7.65;;;3.80;;
74158;SDS011;62511;47.970;11.774;2023-06-26T01:07:19;8.30;;;4.43;;
74158;SDS011;62511;47.970;11.774;2023-06-26T01:09:47;7.18;;;4.10;;
74158;SDS011;62511;47.970;11.774;2023-06-26T01:12:13;8.68;;;4.13;;
74158;SDS011;62511;47.970;11.774;2023-06-26T01:14:39;6.93;;;4.32;;
74158;SDS011;62511;47.970;11.774;2023-06-26T01:17:05;8.52;;;4.38;;
74158;SDS011;62511;47.970;11.774;2023-06-26T01:19:32;8.20;;;4.55;;
74158;SDS011;62511;47.970;11.774;2023-06-26T01:25:09;7.00;;;4.22;;
74158;SDS011;62511;47.970;11.774;2023-06-26T01:29:57;6.70;;;3.97;;
74158;SDS011;62511;47.970;11.774;2023-06-26T01:34:50;8.13;;;3.75;;
74158;SDS011;62511;47.970;11.774;2023-06-26T01:37:16;8.00;;;4.68;;
74158;SDS011;62511;47.970;11.774;2023-06-26T01:39:42;8.18;;;4.43;;
74158;SDS011;62511;47.970;11.774;2023-06-26T01:42:08;7.88;;;4.28;;
74158;SDS011;62511;47.970;11.774;2023-06-26T01:44:35;8.60;;;4.40;;
74158;SDS011;62511;47.970;11.774;2023-06-26T01:47:03;7.97;;;4.35;;
74158;SDS011;62511;47.970;11.774;2023-06-26T01:49:43;7.50;;;4.32;;
74158;SDS011;62511;47.970;11.774;2023-06-26T01:54:37;7.40;;;4.47;;
74158;SDS011;62511;47.970;11.774;2023-06-26T01:57:05;8.07;;;4.35;;
74158;SDS011;62511;47.970;11.774;2023-06-26T01:59:32;7.18;;;4.50;;
74158;SDS011;62511;47.970;11.774;2023-06-26T02:02:00;9.48;;;4.43;;
74158;SDS011;62511;47.970;11.774;2023-06-26T02:04:26;7.45;;;4.25;;
74158;SDS011;62511;47.970;11.774;2023-06-26T02:06:52;8.20;;;4.40;;
74158;SDS011;62511;47.970;11.774;2023-06-26T02:09:19;7.10;;;4.10;;
74158;SDS011;62511;47.970;11.774;2023-06-26T02:11:45;8.70;;;4.40;;
74158;SDS011;62511;47.970;11.774;2023-06-26T02:14:12;6.90;;;3.70;;
74158;SDS011;62511;47.970;11.774;2023-06-26T02:16:38;8.45;;;4.38;;
74158;SDS011;62511;47.970;11.774;2023-06-26T02:19:03;7.07;;;4.28;;
74158;SDS011;62511;47.970;11.774;2023-06-26T02:21:30;6.40;;;3.80;;
74158;SDS011;62511;47.970;11.774;2023-06-26T02:23:56;8.07;;;4.47;;
74158;SDS011;62511;47.970;11.774;2023-06-26T02:26:22;7.80;;;4.18;;
74158;SDS011;62511;47.970;11.774;2023-06-26T02:28:48;8.38;;;4.13;;
74158;SDS011;62511;47.970;11.774;2023-06-26T02:31:14;7.85;;;4.32;;
74158;SDS011;62511;47.970;11.774;2023-06-26T02:33:41;6.80;;;4.45;;
74158;SDS011;62511;47.970;11.774;2023-06-26T02:36:07;6.60;;;4.10;;
74158;SDS011;62511;47.970;11.774;2023-06-26T02:38:34;6.40;;;4.05;;
74158;SDS011;62511;47.970;11.774;2023-06-26T02:41:00;6.95;;;4.00;;
74158;SDS011;62511;47.970;11.774;2023-06-26T02:43:26;8.02;;;4.18;;
74158;SDS011;62511;47.970;11.774;2023-06-26T02:45:52;8.02;;;4.13;;
74158;SDS011;62511;47.970;11.774;2023-06-26T02:48:18;7.78;;;4.47;;
74158;SDS011;62511;47.970;11.774;2023-06-26T02:50:44;7.75;;;4.60;;
74158;SDS011;62511;47.970;11.774;2023-06-26T02:53:11;7.30;;;3.95;;
74158;SDS011;62511;47.970;11.774;2023-06-26T02:55:38;8.35;;;4.50;;
74158;SDS011;62511;47.970;11.774;2023-06-26T02:58:04;7.13;;;4.63;;
74158;SDS011;62511;47.970;11.774;2023-06-26T03:00:30;7.72;;;4.45;;
74158;SDS011;62511;47.970;11.774;2023-06-26T03:02:56;6.68;;;3.80;;
74158;SDS011;62511;47.970;11.774;2023-06-26T03:05:22;8.07;;;4.45;;
74158;SDS011;62511;47.970;11.774;2023-06-26T03:07:49;7.65;;;4.10;;
74158;SDS011;62511;47.970;11.774;2023-06-26T03:10:15;6.20;;;3.95;;
74158;SDS011;62511;47.970;11.774;2023-06-26T03:12:41;8.60;;;4.35;;
74158;SDS011;62511;47.970;11.774;2023-06-26T03:15:07;8.18;;;4.63;;
74158;SDS011;62511;47.970;11.774;2023-06-26T03:17:33;8.32;;;4.28;;
74158;SDS011;62511;47.970;11.774;2023-06-26T03:22:26;7.45;;;3.40;;
74158;SDS011;62511;47.970;11.774;2023-06-26T03:24:52;7.25;;;4.15;;
74158;SDS011;62511;47.970;11.774;2023-06-26T03:27:18;8.40;;;4.07;;
74158;SDS011;62511;47.970;11.774;2023-06-26T03:29:44;8.13;;;3.85;;
74158;SDS011;62511;47.970;11.774;2023-06-26T03:32:10;6.28;;;3.90;;
74158;SDS011;62511;47.970;11.774;2023-06-26T03:34:36;7.50;;;3.95;;
74158;SDS011;62511;47.970;11.774;2023-06-26T03:37:02;7.13;;;4.40;;
74158;SDS011;62511;47.970;11.774;2023-06-26T03:39:28;7.57;;;4.43;;
74158;SDS011;62511;47.970;11.774;2023-06-26T03:41:54;9.38;;;4.40;;
74158;SDS011;62511;47.970;11.774;2023-06-26T03:44:22;7.85;;;4.18;;
74158;SDS011;62511;47.970;11.774;2023-06-26T03:46:48;7.57;;;4.53;;
74158;SDS011;62511;47.970;11.774;2023-06-26T03:49:14;7.70;;;4.75;;
74158;SDS011;62511;47.970;11.774;2023-06-26T03:51:40;7.80;;;3.72;;
74158;SDS011;62511;47.970;11.774;2023-06-26T03:54:06;10.32;;;3.90;;
74158;SDS011;62511;47.970;11.774;2023-06-26T03:56:32;6.78;;;3.60;;
74158;SDS011;62511;47.970;11.774;2023-06-26T03:58:58;7.93;;;4.00;;
74158;SDS011;62511;47.970;11.774;2023-06-26T04:01:24;6.25;;;3.78;;
74158;SDS011;62511;47.970;11.774;2023-06-26T04:03:50;7.03;;;4.05;;
74158;SDS011;62511;47.970;11.774;2023-06-26T04:06:16;7.65;;;4.30;;
74158;SDS011;62511;47.970;11.774;2023-06-26T04:08:42;7.32;;;4.38;;
74158;SDS011;62511;47.970;11.774;2023-06-26T04:11:08;8.50;;;4.85;;
74158;SDS011;62511;47.970;11.774;2023-06-26T04:13:34;8.73;;;4.25;;
74158;SDS011;62511;47.970;11.774;2023-06-26T04:16:00;6.18;;;4.00;;
74158;SDS011;62511;47.970;11.774;2023-06-26T04:18:26;6.47;;;4.28;;
74158;SDS011;62511;47.970;11.774;2023-06-26T04:21:11;6.63;;;4.00;;
74158;SDS011;62511;47.970;11.774;2023-06-26T04:23:38;6.50;;;4.40;;
74158;SDS011;62511;47.970;11.774;2023-06-26T04:26:04;8.18;;;4.43;;
74158;SDS011;62511;47.970;11.774;2023-06-26T04:28:31;6.70;;;4.00;;
74158;SDS011;62511;47.970;11.774;2023-06-26T04:30:57;7.88;;;4.13;;
74158;SDS011;62511;47.970;11.774;2023-06-26T04:33:24;8.10;;;4.63;;
74158;SDS011;62511;47.970;11.774;2023-06-26T04:35:50;6.68;;;4.20;;
74158;SDS011;62511;47.970;11.774;2023-06-26T04:38:16;7.22;;;4.35;;
74158;SDS011;62511;47.970;11.774;2023-06-26T04:40:42;7.07;;;4.50;;
74158;SDS011;62511;47.970;11.774;2023-06-26T04:43:09;6.60;;;4.00;;
74158;SDS011;62511;47.970;11.774;2023-06-26T04:45:35;7.95;;;4.90;;
74158;SDS011;62511;47.970;11.774;2023-06-26T04:48:01;7.47;;;4.32;;
74158;SDS011;62511;47.970;11.774;2023-06-26T04:50:30;7.60;;;4.60;;
74158;SDS011;62511;47.970;11.774;2023-06-26T04:52:56;7.28;;;4.22;;
74158;SDS011;62511;47.970;11.774;2023-06-26T04:55:25;7.35;;;4.68;;
74158;SDS011;62511;47.970;11.774;2023-06-26T04:57:51;8.10;;;4.80;;
74158;SDS011;62511;47.970;11.774;2023-06-26T05:00:17;6.28;;;4.00;;
74158;SDS011;62511;47.970;11.774;2023-06-26T05:02:44;7.45;;;5.07;;
74158;SDS011;62511;47.970;11.774;2023-06-26T05:05:10;7.80;;;4.20;;
74158;SDS011;62511;47.970;11.774;2023-06-26T05:07:36;9.88;;;4.80;;
74158;SDS011;62511;47.970;11.774;2023-06-26T05:10:02;7.57;;;4.47;;
74158;SDS011;62511;47.970;11.774;2023-06-26T05:12:28;7.90;;;4.88;;
74158;SDS011;62511;47.970;11.774;2023-06-26T05:14:54;7.55;;;4.50;;
74158;SDS011;62511;47.970;11.774;2023-06-26T05:17:20;7.05;;;4.47;;
74158;SDS011;62511;47.970;11.774;2023-06-26T05:19:46;8.77;;;4.93;;
74158;SDS011;62511;47.970;11.774;2023-06-26T05:22:12;10.18;;;4.97;;
74158;SDS011;62511;47.970;11.774;2023-06-26T05:24:39;6.57;;;4.38;;
74158;SDS011;62511;47.970;11.774;2023-06-26T05:27:05;6.18;;;4.45;;
74158;SDS011;62511;47.970;11.774;2023-06-26T05:29:32;8.82;;;4.65;;
74158;SDS011;62511;47.970;11.774;2023-06-26T05:31:58;7.53;;;4.63;;
74158;SDS011;62511;47.970;11.774;2023-06-26T05:34:25;7.85;;;5.05;;
74158;SDS011;62511;47.970;11.774;2023-06-26T05:36:55;7.70;;;4.70;;
74158;SDS011;62511;47.970;11.774;2023-06-26T05:39:23;8.90;;;5.20;;
74158;SDS011;62511;47.970;11.774;2023-06-26T05:41:49;10.27;;;6.20;;
74158;SDS011;62511;47.970;11.774;2023-06-26T05:44:15;10.45;;;6.25;;
74158;SDS011;62511;47.970;11.774;2023-06-26T05:46:41;8.80;;;6.13;;
74158;SDS011;62511;47.970;11.774;2023-06-26T05:49:08;7.72;;;5.07;;
74158;SDS011;62511;47.970;11.774;2023-06-26T05:51:34;7.05;;;4.70;;
74158;SDS011;62511;47.970;11.774;2023-06-26T05:54:00;8.30;;;4.88;;
74158;SDS011;62511;47.970;11.774;2023-06-26T05:56:26;7.38;;;4.75;;
74158;SDS011;62511;47.970;11.774;2023-06-26T05:58:52;8.40;;;4.63;;
74158;SDS011;62511;47.970;11.774;2023-06-26T06:01:18;6.78;;;4.35;;
74158;SDS011;62511;47.970;11.774;2023-06-26T06:03:45;6.55;;;4.55;;
74158;SDS011;62511;47.970;11.774;2023-06-26T06:06:11;5.95;;;4.78;;
74158;SDS011;62511;47.970;11.774;2023-06-26T06:08:37;9.02;;;4.97;;
74158;SDS011;62511;47.970;11.774;2023-06-26T06:11:03;7.00;;;4.25;;
74158;SDS011;62511;47.970;11.774;2023-06-26T06:13:29;7.47;;;4.88;;
74158;SDS011;62511;47.970;11.774;2023-06-26T06:15:55;5.95;;;4.65;;
74158;SDS011;62511;47.970;11.774;2023-06-26T06:18:21;8.82;;;4.60;;
74158;SDS011;62511;47.970;11.774;2023-06-26T06:20:47;6.60;;;4.93;;
74158;SDS011;62511;47.970;11.774;2023-06-26T06:23:13;7.95;;;4.97;;
74158;SDS011;62511;47.970;11.774;2023-06-26T06:25:39;8.10;;;4.85;;
74158;SDS011;62511;47.970;11.774;2023-06-26T06:28:05;7.55;;;4.53;;
74158;SDS011;62511;47.970;11.774;2023-06-26T06:30:31;7.32;;;4.32;;
74158;SDS011;62511;47.970;11.774;2023-06-26T06:32:58;6.18;;;4.18;;
74158;SDS011;62511;47.970;11.774;2023-06-26T06:35:24;9.82;;;5.13;;
74158;SDS011;62511;47.970;11.774;2023-06-26T06:37:50;7.22;;;4.72;;
74158;SDS011;62511;47.970;11.774;2023-06-26T06:40:16;7.82;;;4.70;;
74158;SDS011;62511;47.970;11.774;2023-06-26T06:42:42;7.65;;;4.40;;
74158;SDS011;62511;47.970;11.774;2023-06-26T06:45:09;5.90;;;3.80;;
74158;SDS011;62511;47.970;11.774;2023-06-26T06:47:35;5.90;;;4.25;;
74158;SDS011;62511;47.970;11.774;2023-06-26T06:50:01;5.80;;;4.07;;
74158;SDS011;62511;47.970;11.774;2023-06-26T06:52:34;5.63;;;3.67;;
74158;SDS011;62511;47.970;11.774;2023-06-26T06:55:00;6.75;;;4.10;;
74158;SDS011;62511;47.970;11.774;2023-06-26T06:57:31;5.70;;;3.75;;
74158;SDS011;62511;47.970;11.774;2023-06-26T07:00:01;7.35;;;4.50;;
74158;SDS011;62511;47.970;11.774;2023-06-26T07:02:27;5.82;;;4.15;;
74158;SDS011;62511;47.970;11.774;2023-06-26T07:04:54;6.18;;;3.90;;
74158;SDS011;62511;47.970;11.774;2023-06-26T07:07:20;6.38;;;4.68;;
74158;SDS011;62511;47.970;11.774;2023-06-26T07:09:46;5.05;;;3.83;;
74158;SDS011;62511;47.970;11.774;2023-06-26T07:12:12;5.95;;;3.78;;
74158;SDS011;62511;47.970;11.774;2023-06-26T07:14:38;5.65;;;3.90;;
74158;SDS011;62511;47.970;11.774;2023-06-26T07:17:04;6.28;;;3.90;;
74158;SDS011;62511;47.970;11.774;2023-06-26T07:19:30;7.25;;;3.97;;
74158;SDS011;62511;47.970;11.774;2023-06-26T07:21:56;7.15;;;4.57;;
74158;SDS011;62511;47.970;11.774;2023-06-26T07:24:22;5.13;;;3.40;;
74158;SDS011;62511;47.970;11.774;2023-06-26T07:26:48;5.78;;;3.85;;
74158;SDS011;62511;47.970;11.774;2023-06-26T07:29:14;6.00;;;4.00;;
74158;SDS011;62511;47.970;11.774;2023-06-26T07:31:40;6.03;;;4.05;;
74158;SDS011;62511;47.970;11.774;2023-06-26T07:34:06;7.57;;;4.40;;
74158;SDS011;62511;47.970;11.774;2023-06-26T07:36:32;7.45;;;3.80;;
74158;SDS011;62511;47.970;11.774;2023-06-26T07:38:58;4.43;;;3.75;;
74158;SDS011;62511;47.970;11.774;2023-06-26T07:41:24;6.63;;;3.90;;
74158;SDS011;62511;47.970;11.774;2023-06-26T07:43:52;5.43;;;3.40;;
74158;SDS011;62511;47.970;11.774;2023-06-26T07:46:18;4.55;;;3.70;;
74158;SDS011;62511;47.970;11.774;2023-06-26T07:48:44;6.38;;;3.50;;
74158;SDS011;62511;47.970;11.774;2023-06-26T07:51:10;7.22;;;3.95;;
74158;SDS011;62511;47.970;11.774;2023-06-26T07:53:36;5.18;;;3.47;;
74158;SDS011;62511;47.970;11.774;2023-06-26T07:56:02;7.20;;;3.95;;
74158;SDS011;62511;47.970;11.774;2023-06-26T07:58:28;6.70;;;4.03;;
74158;SDS011;62511;47.970;11.774;2023-06-26T08:00:54;6.25;;;4.20;;
74158;SDS011;62511;47.970;11.774;2023-06-26T08:03:20;6.07;;;3.90;;
74158;SDS011;62511;47.970;11.774;2023-06-26T08:05:46;5.13;;;3.95;;
74158;SDS011;62511;47.970;11.774;2023-06-26T08:08:12;6.78;;;4.03;;
74158;SDS011;62511;47.970;11.774;2023-06-26T08:10:38;6.10;;;4.05;;
74158;SDS011;62511;47.970;11.774;2023-06-26T08:13:04;6.07;;;4.20;;
74158;SDS011;62511;47.970;11.774;2023-06-26T08:15:30;5.88;;;4.15;;
74158;SDS011;62511;47.970;11.774;2023-06-26T08:17:56;5.70;;;3.92;;
74158;SDS011;62511;47.970;11.774;2023-06-26T08:20:22;5.70;;;4.13;;
74158;SDS011;62511;47.970;11.774;2023-06-26T08:22:48;6.65;;;4.05;;
74158;SDS011;62511;47.970;11.774;2023-06-26T08:25:16;5.93;;;3.70;;
74158;SDS011;62511;47.970;11.774;2023-06-26T08:27:42;5.60;;;3.95;;
74158;SDS011;62511;47.970;11.774;2023-06-26T08:30:08;5.15;;;3.85;;
74158;SDS011;62511;47.970;11.774;2023-06-26T08:32:35;6.47;;;4.43;;
74158;SDS011;62511;47.970;11.774;2023-06-26T08:35:01;5.93;;;3.83;;
74158;SDS011;62511;47.970;11.774;2023-06-26T08:37:27;5.95;;;4.45;;
74158;SDS011;62511;47.970;11.774;2023-06-26T08:39:53;6.28;;;4.18;;
74158;SDS011;62511;47.970;11.774;2023-06-26T08:42:19;5.97;;;4.05;;
74158;SDS011;62511;47.970;11.774;2023-06-26T08:44:45;5.28;;;4.07;;
74158;SDS011;62511;47.970;11.774;2023-06-26T08:47:11;5.82;;;3.47;;
74158;SDS011;62511;47.970;11.774;2023-06-26T08:49:50;5.30;;;4.00;;
74158;SDS011;62511;47.970;11.774;2023-06-26T08:52:19;6.82;;;4.28;;
74158;SDS011;62511;47.970;11.774;2023-06-26T08:54:49;5.63;;;4.05;;
74158;SDS011;62511;47.970;11.774;2023-06-26T08:57:18;5.53;;;3.50;;
74158;SDS011;62511;47.970;11.774;2023-06-26T08:59:45;5.10;;;3.92;;
74158;SDS011;62511;47.970;11.774;2023-06-26T09:02:12;5.57;;;4.10;;
74158;SDS011;62511;47.970;11.774;2023-06-26T09:04:38;6.28;;;4.20;;
74158;SDS011;62511;47.970;11.774;2023-06-26T09:07:05;5.38;;;3.95;;
74158;SDS011;62511;47.970;11.774;2023-06-26T09:09:31;6.13;;;3.88;;
74158;SDS011;62511;47.970;11.774;2023-06-26T09:11:57;4.10;;;3.03;;
74158;SDS011;62511;47.970;11.774;2023-06-26T09:14:23;5.28;;;3.85;;
74158;SDS011;62511;47.970;11.774;2023-06-26T09:16:49;5.38;;;4.18;;
74158;SDS011;62511;47.970;11.774;2023-06-26T09:19:15;5.28;;;3.65;;
74158;SDS011;62511;47.970;11.774;2023-06-26T09:21:42;5.07;;;3.38;;
74158;SDS011;62511;47.970;11.774;2023-06-26T09:24:09;4.80;;;3.63;;
74158;SDS011;62511;47.970;11.774;2023-06-26T09:29:01;7.03;;;3.33;;
74158;SDS011;62511;47.970;11.774;2023-06-26T09:31:27;5.75;;;4.35;;
74158;SDS011;62511;47.970;11.774;2023-06-26T09:33:55;4.63;;;3.70;;
74158;SDS011;62511;47.970;11.774;2023-06-26T09:36:23;4.25;;;3.05;;
74158;SDS011;62511;47.970;11.774;2023-06-26T09:41:18;4.78;;;3.60;;
74158;SDS011;62511;47.970;11.774;2023-06-26T09:43:45;6.80;;;3.50;;
74158;SDS011;62511;47.970;11.774;2023-06-26T09:48:37;4.07;;;3.15;;
74158;SDS011;62511;47.970;11.774;2023-06-26T09:51:03;3.58;;;3.05;;
74158;SDS011;62511;47.970;11.774;2023-06-26T09:53:29;4.07;;;2.65;;
74158;SDS011;62511;47.970;11.774;2023-06-26T09:55:55;4.95;;;3.50;;
74158;SDS011;62511;47.970;11.774;2023-06-26T09:58:21;4.30;;;3.40;;
74158;SDS011;62511;47.970;11.774;2023-06-26T10:00:50;3.80;;;2.60;;
74158;SDS011;62511;47.970;11.774;2023-06-26T10:03:16;4.35;;;3.08;;
74158;SDS011;62511;47.970;11.774;2023-06-26T10:05:42;4.57;;;2.90;;
74158;SDS011;62511;47.970;11.774;2023-06-26T10:08:10;3.60;;;2.90;;
74158;SDS011;62511;47.970;11.774;2023-06-26T10:10:38;4.65;;;3.30;;
74158;SDS011;62511;47.970;11.774;2023-06-26T10:13:27;4.40;;;3.10;;
74158;SDS011;62511;47.970;11.774;2023-06-26T10:15:51;4.10;;;3.10;;
74158;SDS011;62511;47.970;11.774;2023-06-26T10:18:17;3.75;;;2.90;;
74158;SDS011;62511;47.970;11.774;2023-06-26T10:20:46;5.15;;;3.33;;
74158;SDS011;62511;47.970;11.774;2023-06-26T10:23:12;4.75;;;3.08;;
74158;SDS011;62511;47.970;11.774;2023-06-26T10:25:40;3.85;;;3.03;;
74158;SDS011;62511;47.970;11.774;2023-06-26T10:28:07;3.72;;;2.45;;
74158;SDS011;62511;47.970;11.774;2023-06-26T10:30:35;3.40;;;2.97;;
74158;SDS011;62511;47.970;11.774;2023-06-26T10:33:02;3.38;;;2.60;;
74158;SDS011;62511;47.970;11.774;2023-06-26T10:35:28;3.35;;;2.90;;
74158;SDS011;62511;47.970;11.774;2023-06-26T10:38:00;3.83;;;2.95;;
74158;SDS011;62511;47.970;11.774;2023-06-26T10:40:28;4.55;;;3.03;;
74158;SDS011;62511;47.970;11.774;2023-06-26T10:43:05;3.38;;;2.83;;
74158;SDS011;62511;47.970;11.774;2023-06-26T10:45:35;3.45;;;2.80;;
74158;SDS011;62511;47.970;11.774;2023-06-26T10:48:02;4.63;;;3.10;;
74158;SDS011;62511;47.970;11.774;2023-06-26T10:50:32;4.22;;;2.70;;
74158;SDS011;62511;47.970;11.774;2023-06-26T10:55:34;3.88;;;2.90;;
74158;SDS011;62511;47.970;11.774;2023-06-26T11:00:29;5.25;;;3.00;;
74158;SDS011;62511;47.970;11.774;2023-06-26T11:02:55;4.70;;;3.20;;
74158;SDS011;62511;47.970;11.774;2023-06-26T11:05:32;4.85;;;2.80;;
74158;SDS011;62511;47.970;11.774;2023-06-26T11:08:05;3.10;;;2.50;;
74158;SDS011;62511;47.970;11.774;2023-06-26T11:10:50;3.80;;;3.15;;
74158;SDS011;62511;47.970;11.774;2023-06-26T11:15:43;3.78;;;2.78;;
74158;SDS011;62511;47.970;11.774;2023-06-26T11:18:09;3.00;;;2.63;;
74158;SDS011;62511;47.970;11.774;2023-06-26T11:20:36;3.50;;;2.88;;
74158;SDS011;62511;47.970;11.774;2023-06-26T11:23:03;3.45;;;2.42;;
74158;SDS011;62511;47.970;11.774;2023-06-26T11:25:37;3.97;;;3.30;;
74158;SDS011;62511;47.970;11.774;2023-06-26T11:28:04;3.38;;;2.78;;
74158;SDS011;62511;47.970;11.774;2023-06-26T11:30:30;4.40;;;2.88;;
74158;SDS011;62511;47.970;11.774;2023-06-26T11:33:03;4.32;;;3.10;;
74158;SDS011;62511;47.970;11.774;2023-06-26T11:35:29;3.65;;;2.92;;
74158;SDS011;62511;47.970;11.774;2023-06-26T11:37:56;3.47;;;2.95;;
74158;SDS011;62511;47.970;11.774;2023-06-26T11:40:25;3.83;;;2.60;;
74158;SDS011;62511;47.970;11.774;2023-06-26T11:42:55;3.88;;;3.25;;
74158;SDS011;62511;47.970;11.774;2023-06-26T11:45:21;3.65;;;2.80;;
74158;SDS011;62511;47.970;11.774;2023-06-26T11:47:47;4.40;;;2.95;;
74158;SDS011;62511;47.970;11.774;2023-06-26T11:50:16;5.63;;;2.60;;
74158;SDS011;62511;47.970;11.774;2023-06-26T11:52:45;3.60;;;3.05;;
74158;SDS011;62511;47.970;11.774;2023-06-26T11:55:11;3.30;;;2.50;;
74158;SDS011;62511;47.970;11.774;2023-06-26T11:57:37;3.15;;;2.75;;
74158;SDS011;62511;47.970;11.774;2023-06-26T12:00:13;3.65;;;3.08;;
74158;SDS011;62511;47.970;11.774;2023-06-26T12:02:39;5.03;;;3.00;;
74158;SDS011;62511;47.970;11.774;2023-06-26T12:05:06;3.88;;;3.35;;
74158;SDS011;62511;47.970;11.774;2023-06-26T12:07:33;4.10;;;3.10;;
74158;SDS011;62511;47.970;11.774;2023-06-26T12:10:00;4.18;;;3.42;;
74158;SDS011;62511;47.970;11.774;2023-06-26T12:14:52;3.78;;;3.08;;
74158;SDS011;62511;47.970;11.774;2023-06-26T12:17:18;4.50;;;3.25;;
74158;SDS011;62511;47.970;11.774;2023-06-26T12:19:48;5.25;;;3.20;;
74158;SDS011;62511;47.970;11.774;2023-06-26T12:22:15;4.82;;;3.05;;
74158;SDS011;62511;47.970;11.774;2023-06-26T12:24:41;4.53;;;3.13;;
74158;SDS011;62511;47.970;11.774;2023-06-26T12:27:17;4.18;;;3.10;;
74158;SDS011;62511;47.970;11.774;2023-06-26T12:29:51;4.13;;;3.30;;
74158;SDS011;62511;47.970;11.774;2023-06-26T12:32:18;3.85;;;3.10;;
74158;SDS011;62511;47.970;11.774;2023-06-26T12:34:47;4.82;;;3.20;;
74158;SDS011;62511;47.970;11.774;2023-06-26T12:37:15;5.63;;;3.50;;
74158;SDS011;62511;47.970;11.774;2023-06-26T12:39:48;3.90;;;3.50;;
74158;SDS011;62511;47.970;11.774;2023-06-26T12:42:21;4.22;;;3.45;;
74158;SDS011;62511;47.970;11.774;2023-06-26T12:44:49;5.18;;;3.20;;
74158;SDS011;62511;47.970;11.774;2023-06-26T12:47:16;3.63;;;2.85;;
74158;SDS011;62511;47.970;11.774;2023-06-26T12:49:49;4.03;;;3.05;;
74158;SDS011;62511;47.970;11.774;2023-06-26T12:52:15;5.40;;;3.35;;
74158;SDS011;62511;47.970;11.774;2023-06-26T12:57:07;3.95;;;3.50;;
74158;SDS011;62511;47.970;11.774;2023-06-26T13:01:59;4.90;;;3.42;;
74158;SDS011;62511;47.970;11.774;2023-06-26T13:04:26;6.20;;;3.60;;
74158;SDS011;62511;47.970;11.774;2023-06-26T13:06:52;4.30;;;3.13;;
74158;SDS011;62511;47.970;11.774;2023-06-26T13:09:22;4.47;;;3.50;;
74158;SDS011;62511;47.970;11.774;2023-06-26T13:11:49;3.78;;;3.03;;
74158;SDS011;62511;47.970;11.774;2023-06-26T13:14:15;4.75;;;3.38;;
74158;SDS011;62511;47.970;11.774;2023-06-26T13:19:07;4.22;;;3.67;;
74158;SDS011;62511;47.970;11.774;2023-06-26T13:21:33;5.13;;;3.78;;
74158;SDS011;62511;47.970;11.774;2023-06-26T13:26:25;5.20;;;3.67;;
74158;SDS011;62511;47.970;11.774;2023-06-26T13:28:53;4.43;;;3.53;;
74158;SDS011;62511;47.970;11.774;2023-06-26T13:33:46;4.97;;;3.97;;
74158;SDS011;62511;47.970;11.774;2023-06-26T13:36:13;5.00;;;4.05;;
74158;SDS011;62511;47.970;11.774;2023-06-26T13:38:43;5.47;;;4.10;;
74158;SDS011;62511;47.970;11.774;2023-06-26T13:41:09;7.43;;;3.42;;
74158;SDS011;62511;47.970;11.774;2023-06-26T13:43:36;6.00;;;3.65;;
74158;SDS011;62511;47.970;11.774;2023-06-26T13:46:02;5.25;;;3.63;;
74158;SDS011;62511;47.970;11.774;2023-06-26T13:48:28;6.45;;;3.53;;
74158;SDS011;62511;47.970;11.774;2023-06-26T13:50:54;6.38;;;3.50;;
74158;SDS011;62511;47.970;11.774;2023-06-26T13:53:21;4.93;;;3.60;;
74158;SDS011;62511;47.970;11.774;2023-06-26T13:58:13;4.40;;;3.35;;
74158;SDS011;62511;47.970;11.774;2023-06-26T14:00:39;6.05;;;4.10;;
74158;SDS011;62511;47.970;11.774;2023-06-26T14:03:06;5.45;;;4.00;;
74158;SDS011;62511;47.970;11.774;2023-06-26T14:05:36;4.88;;;3.60;;
74158;SDS011;62511;47.970;11.774;2023-06-26T14:08:03;4.95;;;3.60;;
74158;SDS011;62511;47.970;11.774;2023-06-26T14:10:29;5.18;;;3.63;;
74158;SDS011;62511;47.970;11.774;2023-06-26T14:12:57;5.30;;;4.22;;
74158;SDS011;62511;47.970;11.774;2023-06-26T14:15:23;5.82;;;4.20;;
74158;SDS011;62511;47.970;11.774;2023-06-26T14:17:49;5.80;;;4.22;;
74158;SDS011;62511;47.970;11.774;2023-06-26T14:22:42;7.15;;;3.80;;
74158;SDS011;62511;47.970;11.774;2023-06-26T14:25:09;4.70;;;3.67;;
74158;SDS011;62511;47.970;11.774;2023-06-26T14:27:36;6.70;;;3.92;;
74158;SDS011;62511;47.970;11.774;2023-06-26T14:30:03;6.05;;;3.72;;
74158;SDS011;62511;47.970;11.774;2023-06-26T14:32:30;7.10;;;4.10;;
74158;SDS011;62511;47.970;11.774;2023-06-26T14:34:56;6.97;;;3.97;;
74158;SDS011;62511;47.970;11.774;2023-06-26T14:37:22;5.32;;;4.40;;
74158;SDS011;62511;47.970;11.774;2023-06-26T14:39:49;5.22;;;4.20;;
74158;SDS011;62511;47.970;11.774;2023-06-26T14:42:15;6.53;;;4.22;;
74158;SDS011;62511;47.970;11.774;2023-06-26T14:44:41;5.70;;;4.20;;
74158;SDS011;62511;47.970;11.774;2023-06-26T14:47:07;6.35;;;4.00;;
74158;SDS011;62511;47.970;11.774;2023-06-26T14:49:33;5.90;;;3.60;;
74158;SDS011;62511;47.970;11.774;2023-06-26T14:51:59;4.97;;;3.95;;
74158;SDS011;62511;47.970;11.774;2023-06-26T14:54:25;6.80;;;4.00;;
74158;SDS011;62511;47.970;11.774;2023-06-26T14:56:51;6.05;;;3.63;;
74158;SDS011;62511;47.970;11.774;2023-06-26T14:59:18;4.78;;;4.07;;
74158;SDS011;62511;47.970;11.774;2023-06-26T15:01:44;5.28;;;4.25;;
74158;SDS011;62511;47.970;11.774;2023-06-26T15:04:10;6.22;;;4.13;;
74158;SDS011;62511;47.970;11.774;2023-06-26T15:06:36;5.28;;;4.55;;
74158;SDS011;62511;47.970;11.774;2023-06-26T15:09:03;5.70;;;4.00;;
74158;SDS011;62511;47.970;11.774;2023-06-26T15:11:30;4.95;;;3.80;;
74158;SDS011;62511;47.970;11.774;2023-06-26T15:13:57;4.50;;;3.65;;
74158;SDS011;62511;47.970;11.774;2023-06-26T15:16:23;6.30;;;4.30;;
74158;SDS011;62511;47.970;11.774;2023-06-26T15:18:49;5.32;;;4.55;;
74158;SDS011;62511;47.970;11.774;2023-06-26T15:21:15;6.25;;;3.92;;